Time;durP1;ratioP1;P1;durP2;ratioP2;P2;SDS_P1;SDS_P2;PMS_P1;PMS_P2;Temp;Humidity;BMP_temperature;BMP_pressure;BME280_temperature;BME280_humidity;BME280_pressure;Samples;Min_cycle;Max_cycle;Signal;HPM_P1;HPM_P2
2021/11/06 00:02:20;;;;;;;1.77;1.05;;;;;;;17.32;56.44;102733.28;4787610;30;20080;-81
2021/11/06 00:04:48;;;;;;;1.92;1.15;;;;;;;17.31;56.61;102737.63;4802752;30;20035;-81
2021/11/06 00:07:22;;;;;;;1.52;0.90;;;;;;;17.31;56.47;102737.63;4802912;29;20129;-81
2021/11/06 00:09:48;;;;;;;2.10;1.20;;;;;;;17.32;56.61;102735.88;4803084;29;20074;-81
2021/11/06 00:12:15;;;;;;;2.20;1.30;;;;;;;17.32;56.56;102735.88;4802511;30;20032;-80
2021/11/06 00:14:42;;;;;;;2.20;1.00;;;;;;;17.31;56.62;102735.00;4806733;30;20091;-81
2021/11/06 00:17:08;;;;;;;2.20;1.33;;;;;;;17.33;56.68;102735.03;4801520;29;20047;-81
2021/11/06 00:19:40;;;;;;;2.83;1.13;;;;;;;17.31;56.55;102727.22;4801500;30;20027;-82
2021/11/06 00:22:12;;;;;;;2.22;1.00;;;;;;;17.31;56.62;102734.13;4810059;29;20046;-81
2021/11/06 00:24:41;;;;;;;1.83;1.13;;;;;;;17.31;56.52;102735.00;4824724;29;20078;-81
2021/11/06 00:27:07;;;;;;;1.90;1.10;;;;;;;17.31;56.50;102735.00;4841053;29;20058;-81
2021/11/06 00:29:39;;;;;;;2.22;1.23;;;;;;;17.32;56.56;102736.75;4824458;29;20065;-81
2021/11/06 00:32:25;;;;;;;2.63;1.33;;;;;;;17.32;56.61;102736.75;4840443;29;20026;-81
2021/11/06 00:35:16;;;;;;;2.08;1.10;;;;;;;17.33;56.61;102740.22;4841188;29;20075;-81
2021/11/06 00:37:43;;;;;;;2.72;1.27;;;;;;;17.31;56.37;102753.22;4841855;29;20033;-81
2021/11/06 00:40:36;;;;;;;2.90;1.20;;;;;;;17.32;56.65;102741.09;4840837;29;20069;-81
2021/11/06 00:43:23;;;;;;;1.23;0.93;;;;;;;17.31;56.55;102737.63;4840621;29;20038;-81
2021/11/06 00:45:50;;;;;;;2.75;1.30;;;;;;;17.30;56.39;102733.25;4841264;29;20026;-81
2021/11/06 00:48:17;;;;;;;1.88;1.10;;;;;;;17.30;56.52;102732.38;4842419;29;20045;-81
2021/11/06 00:51:18;;;;;;;1.83;1.30;;;;;;;17.29;56.72;102723.69;4826476;29;20042;-81
2021/11/06 00:57:51;;;;;;;2.45;1.08;;;;;;;17.31;56.62;102719.41;4806322;30;20106;-82
2021/11/06 01:00:32;;;;;;;1.60;1.00;;;;;;;17.28;56.65;102706.31;4805337;30;20050;-81
2021/11/06 01:03:08;;;;;;;1.33;0.90;;;;;;;17.28;56.75;102699.38;4778950;29;20039;-82
2021/11/06 01:06:00;;;;;;;1.65;0.90;;;;;;;17.30;56.83;102709.81;4806641;30;20059;-81
2021/11/06 01:09:01;;;;;;;1.67;1.10;;;;;;;17.28;56.69;102707.19;4806676;29;20082;-81
2021/11/06 01:12:06;;;;;;;1.95;0.98;;;;;;;17.29;56.84;102715.88;4788812;30;20066;-82
2021/11/06 01:14:57;;;;;;;1.77;1.17;;;;;;;17.29;56.59;102708.09;4789068;30;20039;-81
2021/11/06 01:17:58;;;;;;;2.10;1.17;;;;;;;17.29;56.60;102697.66;4788012;30;20054;-81
2021/11/06 01:20:51;;;;;;;2.20;1.20;;;;;;;17.28;56.60;102695.91;4788665;30;20035;-81
2021/11/06 01:23:46;;;;;;;1.70;1.00;;;;;;;17.28;56.70;102699.38;4737096;30;20057;-81
2021/11/06 01:26:32;;;;;;;1.80;1.20;;;;;;;17.29;56.64;102700.28;4738338;30;20034;-81
2021/11/06 01:28:58;;;;;;;2.60;1.13;;;;;;;17.29;56.72;102708.09;4735342;30;20044;-81
2021/11/06 01:31:27;;;;;;;2.20;1.25;;;;;;;17.28;56.65;102711.50;4749611;30;20096;-81
2021/11/06 01:33:53;;;;;;;3.42;1.00;;;;;;;17.28;56.58;102701.97;4720456;30;20045;-81
2021/11/06 01:36:26;;;;;;;2.22;1.20;;;;;;;17.27;56.55;102702.84;4737953;30;20068;-79
2021/11/06 01:38:52;;;;;;;2.10;1.08;;;;;;;17.27;56.92;102701.97;4748453;30;20070;-81
2021/11/06 01:41:21;;;;;;;1.92;1.10;;;;;;;17.27;56.84;102702.84;4734153;30;20049;-81
2021/11/06 01:43:48;;;;;;;1.98;1.10;;;;;;;17.27;56.80;102699.38;4746120;30;20052;-81
2021/11/06 01:46:15;;;;;;;1.67;0.98;;;;;;;17.28;56.82;102708.91;4734598;30;20039;-81
2021/11/06 01:48:43;;;;;;;1.98;1.15;;;;;;;17.29;56.50;102715.88;4765196;30;20469;-81
2021/11/06 01:51:10;;;;;;;1.67;1.08;;;;;;;17.27;56.65;102702.84;4765946;30;20052;-82
2021/11/06 01:53:37;;;;;;;1.85;0.98;;;;;;;17.28;56.89;102707.19;4766317;30;20065;-82
2021/11/06 01:56:07;;;;;;;1.98;1.10;;;;;;;17.28;56.83;102704.56;4765678;30;20043;-80
2021/11/06 01:58:44;;;;;;;1.63;1.00;;;;;;;17.27;56.74;102699.38;4765606;30;20032;-81
2021/11/06 02:01:10;;;;;;;2.20;1.25;;;;;;;17.25;56.93;102685.44;4780557;30;20067;-81
2021/11/06 02:03:37;;;;;;;2.17;1.20;;;;;;;17.26;56.84;102687.19;4766676;30;20032;-81
2021/11/06 02:06:03;;;;;;;2.17;1.17;;;;;;;17.27;56.42;102678.53;4781222;30;20039;-81
2021/11/06 02:08:43;;;;;;;1.45;0.90;;;;;;;17.26;57.00;102681.97;4781774;30;20060;-81
2021/11/06 02:11:46;;;;;;;1.63;1.17;;;;;;;17.27;56.64;102681.16;4767050;30;20024;-81
2021/11/06 02:14:19;;;;;;;2.88;1.10;;;;;;;17.27;56.68;102684.63;4766979;30;20067;-80
2021/11/06 02:16:45;;;;;;;1.95;1.00;;;;;;;17.27;56.78;102678.53;4781801;30;20050;-81
2021/11/06 02:19:11;;;;;;;1.33;1.00;;;;;;;17.26;56.76;102679.38;4770289;30;20086;-81
2021/11/06 02:24:42;;;;;;;2.28;1.08;;;;;;;17.27;56.78;102674.22;4765486;30;20049;-81
2021/11/06 02:27:09;;;;;;;1.50;1.00;;;;;;;17.26;56.64;102680.25;4826921;29;20106;-81
2021/11/06 02:29:36;;;;;;;1.65;1.10;;;;;;;17.25;56.73;102675.91;4838174;29;20050;-81
2021/11/06 02:32:09;;;;;;;2.20;1.05;;;;;;;17.26;56.77;102669.84;4840576;29;20028;-81
2021/11/06 02:34:36;;;;;;;2.30;1.13;;;;;;;17.27;56.90;102675.94;4838930;29;20060;-81
2021/11/06 02:37:02;;;;;;;1.83;1.02;;;;;;;17.25;56.94;102681.09;4842271;29;20031;-81
2021/11/06 02:39:34;;;;;;;2.20;1.27;;;;;;;17.24;56.96;102671.53;4839520;29;20049;-81
2021/11/06 02:42:06;;;;;;;2.13;1.10;;;;;;;17.25;56.84;102675.03;4839897;29;20042;-81
2021/11/06 02:44:32;;;;;;;3.78;1.48;;;;;;;17.25;56.81;102675.91;4839034;29;20035;-81
2021/11/06 02:46:59;;;;;;;2.53;1.20;;;;;;;17.26;56.58;102674.16;4839448;29;20031;-81
2021/11/06 02:49:28;;;;;;;2.00;1.02;;;;;;;17.25;56.63;102685.44;4839825;29;20026;-81
2021/11/06 02:52:01;;;;;;;2.35;1.00;;;;;;;17.25;56.87;102685.44;4822577;29;20065;-81
2021/11/06 02:54:27;;;;;;;2.28;1.10;;;;;;;17.25;56.70;102685.44;4840458;29;20062;-80
2021/11/06 02:57:02;;;;;;;2.17;1.08;;;;;;;17.25;56.51;102686.31;4843042;29;20037;-81
2021/11/06 03:00:07;;;;;;;2.20;0.82;;;;;;;17.25;56.89;102691.50;4845072;29;20028;-78
2021/11/06 03:02:40;;;;;;;2.70;1.10;;;;;;;17.26;56.79;102687.19;4826405;29;20039;-81
2021/11/06 03:05:17;;;;;;;1.90;1.10;;;;;;;17.24;56.92;102684.53;4827456;29;20033;-82
2021/11/06 03:07:49;;;;;;;2.58;1.20;;;;;;;17.24;56.80;102684.53;4842609;29;20061;-81
2021/11/06 03:10:17;;;;;;;2.55;1.30;;;;;;;17.24;57.01;102675.84;4839969;29;20050;-82
2021/11/06 03:13:25;;;;;;;2.50;1.20;;;;;;;17.26;56.67;102684.56;4828212;29;20038;-81
2021/11/06 03:15:59;;;;;;;1.60;1.10;;;;;;;17.24;56.84;102676.72;4822236;29;20098;-81
2021/11/06 03:18:45;;;;;;;2.13;1.17;;;;;;;17.24;56.75;102676.72;4843699;29;20034;-81
2021/11/06 03:21:20;;;;;;;3.25;1.30;;;;;;;17.23;56.89;102685.41;4842956;29;20038;-81
2021/11/06 03:27:12;;;;;;;2.10;1.10;;;;;;;17.23;56.75;102677.59;4843193;29;20041;-81
2021/11/06 03:29:40;;;;;;;1.75;1.00;;;;;;;17.22;56.71;102670.66;4843154;29;20037;-81
2021/11/06 03:32:20;;;;;;;1.58;0.98;;;;;;;17.24;56.83;102679.34;4842999;29;20094;-81
2021/11/06 03:34:52;;;;;;;3.28;1.25;;;;;;;17.21;56.92;102666.28;4825806;29;20026;-81
2021/11/06 03:40:44;;;;;;;1.98;1.25;;;;;;;17.22;56.83;102669.75;4843045;29;20077;-81
2021/11/06 03:43:18;;;;;;;1.83;1.10;;;;;;;17.22;56.81;102661.94;4822655;29;20040;-81
2021/11/06 03:45:56;;;;;;;1.70;1.10;;;;;;;17.22;56.90;102655.03;4843408;29;20026;-81
2021/11/06 03:48:28;;;;;;;2.22;1.08;;;;;;;17.23;57.06;102656.78;4827002;29;20132;-82
2021/11/06 03:51:18;;;;;;;3.33;1.45;;;;;;;17.23;57.01;102659.38;4811930;29;20054;-82
2021/11/06 03:53:47;;;;;;;2.53;1.17;;;;;;;17.21;56.77;102650.66;4805066;30;20043;-81
2021/11/06 03:56:16;;;;;;;1.65;1.20;;;;;;;17.22;56.95;102648.94;4795727;30;20047;-81
2021/11/06 03:58:46;;;;;;;2.03;0.98;;;;;;;17.22;56.69;102648.94;4792218;30;20054;-81
2021/11/06 04:01:13;;;;;;;1.92;1.20;;;;;;;17.21;56.77;102652.38;4804118;30;20039;-81
2021/11/06 04:03:39;;;;;;;1.98;1.35;;;;;;;17.22;56.82;102656.72;4804021;30;20046;-81
2021/11/06 04:06:05;;;;;;;2.10;1.20;;;;;;;17.22;56.93;102654.13;4789537;30;20047;-81
2021/11/06 04:08:32;;;;;;;2.78;1.35;;;;;;;17.21;56.74;102653.25;4801735;29;20070;-81
2021/11/06 04:10:59;;;;;;;2.47;1.20;;;;;;;17.22;56.95;102659.34;4803559;30;20078;-81
2021/11/06 04:13:32;;;;;;;2.33;1.10;;;;;;;17.21;56.96;102655.88;4804142;30;20031;-81
2021/11/06 04:15:58;;;;;;;2.15;1.20;;;;;;;17.20;56.76;102659.31;4789354;30;20059;-81
2021/11/06 04:19:08;;;;;;;2.88;1.45;;;;;;;17.22;56.73;102661.94;4804524;30;20122;-81
2021/11/06 04:21:36;;;;;;;2.50;1.10;;;;;;;17.22;57.01;102660.25;4804369;30;20043;-80
2021/11/06 04:24:03;;;;;;;3.63;1.23;;;;;;;17.20;56.84;102654.13;4803698;30;20039;-80
2021/11/06 04:26:32;;;;;;;2.85;1.17;;;;;;;17.21;56.71;102660.19;4803174;30;20027;-81
2021/11/06 04:29:17;;;;;;;2.45;1.30;;;;;;;17.20;56.80;102667.13;4803238;30;20039;-81
2021/11/06 04:31:49;;;;;;;2.30;1.20;;;;;;;17.20;56.99;102656.72;4805534;30;20050;-81
2021/11/06 04:34:18;;;;;;;1.92;1.20;;;;;;;17.21;56.86;102660.19;4805535;30;20039;-81
2021/11/06 04:39:51;;;;;;;2.28;1.15;;;;;;;17.20;56.92;102651.53;4767868;30;20115;-81
2021/11/06 04:42:18;;;;;;;1.75;1.10;;;;;;;17.20;56.93;102653.22;4767482;30;20143;-81
2021/11/06 04:44:47;;;;;;;1.77;1.20;;;;;;;17.20;57.15;102655.81;4766884;30;20545;-81
2021/11/06 04:47:40;;;;;;;2.15;1.20;;;;;;;17.21;56.99;102649.78;4766837;30;20032;-81
2021/11/06 04:50:22;;;;;;;2.42;1.20;;;;;;;17.20;56.80;102646.31;4764884;30;20099;-81
2021/11/06 04:53:00;;;;;;;2.55;1.30;;;;;;;17.20;57.00;102648.00;4801777;30;20055;-81
2021/11/06 04:55:27;;;;;;;1.85;1.23;;;;;;;17.20;57.23;102650.63;4787574;30;20035;-81
2021/11/06 04:57:53;;;;;;;2.67;1.27;;;;;;;17.20;56.85;102650.63;4786459;30;20031;-81
2021/11/06 05:00:30;;;;;;;2.72;1.27;;;;;;;17.21;56.94;102653.25;4801702;29;20132;-81
2021/11/06 05:02:57;;;;;;;2.72;1.33;;;;;;;17.20;56.80;102658.44;4788408;30;20039;-81
2021/11/06 05:05:26;;;;;;;3.13;1.25;;;;;;;17.20;56.92;102653.22;4786331;30;20066;-81
2021/11/06 05:07:52;;;;;;;2.22;1.30;;;;;;;17.20;57.09;102650.63;4799331;29;20098;-81
2021/11/06 05:10:19;;;;;;;2.05;1.20;;;;;;;17.19;57.08;102648.88;4800842;29;20059;-81
2021/11/06 05:12:51;;;;;;;2.88;1.33;;;;;;;17.18;56.90;102639.31;4772567;30;20048;-81
2021/11/06 05:15:17;;;;;;;2.53;1.17;;;;;;;17.20;56.86;102648.00;4787599;30;20436;-81
2021/11/06 05:17:46;;;;;;;3.90;1.42;;;;;;;17.19;56.79;102648.88;4801896;29;20047;-81
2021/11/06 05:20:16;;;;;;;2.60;1.38;;;;;;;17.19;56.70;102654.94;4773159;30;20046;-81
2021/11/06 05:22:41;;;;;;;2.63;1.42;;;;;;;17.20;56.78;102658.44;4786165;30;20039;-81
2021/11/06 05:25:12;;;;;;;2.20;1.23;;;;;;;17.19;57.05;102660.16;4800821;30;20046;-81
2021/11/06 05:27:48;;;;;;;1.98;1.00;;;;;;;17.18;56.76;102658.41;4817244;29;20046;-81
2021/11/06 05:30:14;;;;;;;3.70;1.50;;;;;;;17.19;56.93;102661.88;4820021;29;20175;-81
2021/11/06 05:32:44;;;;;;;2.40;1.40;;;;;;;17.17;56.91;102654.03;4833755;29;20046;-81
2021/11/06 05:35:22;;;;;;;2.97;1.50;;;;;;;17.20;56.88;102663.63;4835544;29;20181;-81
2021/11/06 05:37:50;;;;;;;4.50;1.63;;;;;;;17.17;57.04;102659.25;4820925;29;20023;-81
2021/11/06 05:40:19;;;;;;;2.95;1.50;;;;;;;17.19;56.83;102656.69;4820529;29;20035;-81
2021/11/06 05:42:54;;;;;;;2.60;1.40;;;;;;;17.18;56.79;102649.72;4821498;29;20031;-81
2021/11/06 05:45:20;;;;;;;2.30;1.50;;;;;;;17.19;56.97;102654.09;4821781;29;20068;-81
2021/11/06 05:47:47;;;;;;;2.05;1.50;;;;;;;17.19;56.88;102654.94;4818133;29;20050;-81
2021/11/06 05:50:20;;;;;;;2.35;1.45;;;;;;;17.18;56.73;102641.91;4820779;29;20049;-81
2021/11/06 06:01:03;;;;;;;1.85;1.17;;;;;;;17.17;56.95;102640.16;4940302;24;20051;-81
2021/11/06 06:03:33;;;;;;;3.25;1.67;;;;;;;17.17;56.88;102640.16;4838260;29;20041;-81
2021/11/06 06:06:04;;;;;;;2.88;1.60;;;;;;;17.17;56.81;102638.44;4823295;29;20488;-81
2021/11/06 06:08:32;;;;;;;2.95;1.58;;;;;;;17.17;56.77;102641.03;4839162;29;20539;-81
2021/11/06 06:11:17;;;;;;;2.65;1.50;;;;;;;17.18;56.69;102639.31;4821947;29;20047;-81
2021/11/06 06:13:44;;;;;;;2.70;1.48;;;;;;;17.18;56.86;102641.91;4839298;29;20026;-81
2021/11/06 06:16:14;;;;;;;3.38;1.50;;;;;;;17.17;56.72;102637.56;4840481;29;20042;-81
2021/11/06 06:19:03;;;;;;;2.63;1.60;;;;;;;17.17;56.78;102642.75;4838609;29;20062;-82
2021/11/06 06:21:30;;;;;;;2.92;1.60;;;;;;;17.18;57.04;102641.91;4840554;29;20042;-81
2021/11/06 06:24:07;;;;;;;2.97;1.33;;;;;;;17.16;56.73;102636.69;4839138;29;20034;-81
2021/11/06 06:26:47;;;;;;;2.38;1.60;;;;;;;17.16;56.81;102641.91;4824925;29;20042;-81
2021/11/06 06:29:14;;;;;;;2.83;1.45;;;;;;;17.16;56.80;102644.50;4820369;29;20049;-80
2021/11/06 06:31:42;;;;;;;2.30;1.63;;;;;;;17.16;56.73;102641.91;4825886;29;20034;-81
2021/11/06 06:34:11;;;;;;;2.33;1.48;;;;;;;17.16;56.64;102633.19;4825387;29;20042;-82
2021/11/06 06:36:37;;;;;;;2.00;1.30;;;;;;;17.15;56.58;102634.91;4840622;29;20129;-81
2021/11/06 06:39:05;;;;;;;2.95;1.58;;;;;;;17.15;56.80;102628.84;4842352;29;20037;-81
2021/11/06 06:41:35;;;;;;;3.33;1.80;;;;;;;17.14;56.71;102627.97;4842449;29;20045;-81
2021/11/06 06:44:07;;;;;;;2.80;1.50;;;;;;;17.16;56.59;102630.59;4827279;29;20077;-81
2021/11/06 06:46:44;;;;;;;4.30;1.80;;;;;;;17.15;56.72;102634.03;4839915;29;20042;-81
2021/11/06 06:49:12;;;;;;;3.17;1.70;;;;;;;17.17;56.99;102638.44;4841830;29;20093;-81
2021/11/06 06:51:39;;;;;;;2.85;1.70;;;;;;;17.16;56.76;102636.69;4824749;29;20046;-81
2021/11/06 06:54:11;;;;;;;3.22;1.80;;;;;;;17.14;56.77;102638.38;4840203;29;20027;-81
2021/11/06 06:56:39;;;;;;;2.80;1.67;;;;;;;17.15;56.72;102641.84;4841045;29;20053;-81
2021/11/06 06:59:06;;;;;;;2.55;1.40;;;;;;;17.16;56.69;102641.00;4840912;29;20504;-81
2021/11/06 07:01:33;;;;;;;2.55;1.30;;;;;;;17.15;56.64;102640.13;4808562;29;20058;-81
2021/11/06 07:03:58;;;;;;;3.50;1.50;;;;;;;17.16;56.68;102641.00;4840526;29;20098;-81
2021/11/06 07:06:24;;;;;;;3.20;1.70;;;;;;;17.15;56.73;102642.72;4839654;29;20046;-81
2021/11/06 07:08:52;;;;;;;3.15;1.63;;;;;;;17.16;56.54;102638.38;4825842;29;20065;-81
2021/11/06 07:11:24;;;;;;;3.28;1.58;;;;;;;17.16;56.59;102638.38;4841911;29;20034;-81
2021/11/06 07:14:10;;;;;;;3.05;1.83;;;;;;;17.17;56.54;102648.84;4826913;29;20022;-82
2021/11/06 07:16:39;;;;;;;2.75;1.75;;;;;;;17.18;56.53;102637.59;4822880;29;20039;-81
2021/11/06 07:19:06;;;;;;;2.40;1.60;;;;;;;17.17;56.51;102634.97;4821650;29;20453;-81
2021/11/06 07:22:09;;;;;;;2.95;1.75;;;;;;;17.18;56.40;102631.50;4810016;29;20048;-81
2021/11/06 07:29:00;;;;;;;2.13;1.20;;;;;;;17.19;56.46;102639.34;4827655;29;20049;-82
2021/11/06 07:31:47;;;;;;;3.08;1.52;;;;;;;17.20;56.48;102642.81;4812205;29;20039;-82
2021/11/06 07:34:57;;;;;;;2.88;1.60;;;;;;;17.21;56.04;102639.38;4828159;29;20046;-81
2021/11/06 07:37:25;;;;;;;3.05;1.60;;;;;;;17.19;56.38;102636.75;4812341;29;20035;-81
2021/11/06 07:39:57;;;;;;;2.50;1.45;;;;;;;17.21;56.28;102641.97;4811442;29;20043;-82
2021/11/06 07:42:42;;;;;;;3.85;1.98;;;;;;;17.22;56.18;102657.63;4826421;29;20035;-82
2021/11/06 07:45:29;;;;;;;3.08;1.70;;;;;;;17.24;55.94;102649.84;4799013;29;20047;-81
2021/11/06 07:47:57;;;;;;;3.47;1.60;;;;;;;17.26;56.20;102653.34;4825917;29;20049;-82
2021/11/06 07:50:24;;;;;;;2.80;1.70;;;;;;;17.27;56.24;102650.78;4812270;29;20046;-81
2021/11/06 07:52:50;;;;;;;3.13;1.70;;;;;;;17.27;56.20;102650.78;4806635;29;20536;-81
2021/11/06 07:55:23;;;;;;;2.63;1.70;;;;;;;17.30;56.08;102647.38;4811045;29;20051;-82
2021/11/06 07:58:14;;;;;;;2.70;1.80;;;;;;;17.32;55.93;102648.28;4824677;29;20026;-81
2021/11/06 08:01:02;;;;;;;2.25;1.50;;;;;;;17.33;56.00;102650.03;4772397;30;20031;-82
2021/11/06 08:03:31;;;;;;;3.22;1.60;;;;;;;17.32;55.88;102650.88;4772397;30;20064;-82
2021/11/06 08:09:56;;;;;;;2.95;1.60;;;;;;;17.32;55.95;102645.69;4792241;30;20066;-82
2021/11/06 08:15:46;;;;;;;3.42;1.55;;;;;;;17.28;56.01;102649.94;4809177;29;19920;-82
2021/11/06 08:18:20;;;;;;;3.00;1.73;;;;;;;17.26;55.99;102646.41;4793104;30;20106;-81
2021/11/06 08:21:08;;;;;;;3.35;1.77;;;;;;;17.22;56.30;102647.22;4803853;30;20040;-81
2021/11/06 08:23:42;;;;;;;2.58;1.60;;;;;;;17.22;56.23;102643.72;4791113;29;20153;-81
2021/11/06 09:38:03;;;;;;;2.72;1.52;;;;;;;17.32;55.93;102624.00;5103536;24;20073;-81
2021/11/06 09:40:29;;;;;;;2.83;1.60;;;;;;;17.32;55.57;102617.06;4820545;29;20046;-81
2021/11/06 09:42:59;;;;;;;3.22;1.60;;;;;;;17.35;55.98;102611.91;4836843;29;20027;-82
2021/11/06 09:45:26;;;;;;;2.92;1.77;;;;;;;17.37;55.66;102618.00;4837863;29;20072;-82
2021/11/06 09:47:55;;;;;;;2.10;1.60;;;;;;;17.40;55.55;102612.03;4839669;29;20027;-81
2021/11/06 09:50:30;;;;;;;2.00;1.38;;;;;;;17.43;55.44;102617.28;4823556;29;20046;-82
2021/11/06 09:52:57;;;;;;;2.75;1.67;;;;;;;17.43;55.60;102615.53;4839540;29;20041;-82
2021/11/06 09:55:27;;;;;;;2.80;1.60;;;;;;;17.44;55.55;102617.31;4841260;29;20050;-82
2021/11/06 09:58:02;;;;;;;2.53;1.30;;;;;;;17.42;55.56;102623.31;4835794;29;20057;-82
2021/11/06 10:00:36;;;;;;;2.85;1.42;;;;;;;17.39;55.80;102624.13;4823825;29;20034;-82
2021/11/06 10:03:04;;;;;;;2.28;1.38;;;;;;;17.35;55.86;102626.63;4824518;29;20046;-82
2021/11/06 10:06:07;;;;;;;2.47;1.45;;;;;;;17.33;56.06;102628.34;4840875;29;20046;-81
2021/11/06 10:08:38;;;;;;;2.20;1.40;;;;;;;17.29;55.98;102624.81;4841082;29;20033;-82
2021/11/06 10:11:11;;;;;;;2.75;1.60;;;;;;;17.26;56.04;102617.78;4839163;29;20097;-82
2021/11/06 10:14:14;;;;;;;4.68;1.60;;;;;;;17.27;55.88;102622.16;4840363;29;20030;-82
2021/11/06 10:17:20;;;;;;;2.28;1.48;;;;;;;17.27;55.92;102629.09;4841458;29;20036;-81
2021/11/06 10:20:24;;;;;;;2.55;1.50;;;;;;;17.26;55.88;102616.94;4839776;29;20035;-81
2021/11/06 10:22:55;;;;;;;2.53;1.42;;;;;;;17.27;56.08;102621.31;4837787;29;20060;-82
2021/11/06 10:25:29;;;;;;;2.33;1.52;;;;;;;17.30;55.80;102623.09;4839730;29;20033;-82
2021/11/06 10:27:56;;;;;;;;;;;;;;;17.33;55.89;102620.53;4839951;29;20034;-81
2021/11/06 10:33:44;;;;;;;2.65;1.67;;;;;;;17.41;55.48;102611.16;5002548;24;20062;-84
2021/11/06 10:36:27;;;;;;;2.88;1.55;;;;;;;17.43;55.48;102612.06;4846178;29;20099;-85
2021/11/06 10:39:11;;;;;;;2.60;1.40;;;;;;;17.46;55.29;102605.19;4842931;29;20465;-81
2021/11/06 10:41:41;;;;;;;2.42;1.42;;;;;;;17.47;55.56;102598.25;4836072;29;20033;-81
2021/11/06 10:44:32;;;;;;;3.05;1.45;;;;;;;17.46;55.38;102589.59;4825582;29;20027;-84
2021/11/06 10:47:16;;;;;;;2.60;1.55;;;;;;;17.48;55.28;102593.09;4845978;29;20046;-85
2021/11/06 10:49:49;;;;;;;2.53;1.52;;;;;;;17.48;55.41;102587.88;4846092;29;20014;-85
2021/11/06 10:52:52;;;;;;;2.92;1.50;;;;;;;17.46;55.43;102583.47;4828373;29;20034;-85
2021/11/06 10:59:15;;;;;;;2.22;1.55;;;;;;;17.45;55.49;102576.53;4846368;29;20069;-85
2021/11/06 11:05:38;;;;;;;3.53;1.42;;;;;;;17.40;55.52;102571.25;5149683;23;20438;-85
2021/11/06 11:14:21;;;;;;;2.95;1.25;;;;;;;17.36;55.92;102552.94;4844988;29;20058;-83
2021/11/06 12:04:50;;;;;;;3.05;1.23;;;;;;;17.30;56.05;102496.44;4854609;24;20907;-85
2021/11/06 12:11:06;;;;;;;2.95;1.30;;;;;;;17.29;56.04;102476.50;4830661;29;20052;-85
2021/11/06 12:14:03;;;;;;;2.60;1.50;;;;;;;17.30;56.03;102477.38;4799344;30;20047;-84
2021/11/06 12:24:12;;;;;;;2.13;1.20;;;;;;;17.34;55.78;102451.44;4792214;30;20193;-85
2021/11/06 12:34:20;;;;;;;2.28;1.33;;;;;;;17.31;56.23;102437.47;4792964;30;20051;-85
2021/11/06 13:18:23;;;;;;;2.35;1.50;;;;;;;17.27;56.12;102388.00;4774708;30;20082;-85
2021/11/06 15:20:37;;;;;;;3.35;1.50;;;;;;;17.16;56.75;102256.88;4792405;30;20073;-85
2021/11/06 15:23:05;;;;;;;3.65;1.40;;;;;;;17.16;56.99;102256.00;4803348;29;20027;-80
2021/11/06 15:25:33;;;;;;;3.03;1.40;;;;;;;17.17;56.59;102249.94;4772703;30;20031;-82
2021/11/06 15:27:58;;;;;;;2.92;1.30;;;;;;;17.16;56.87;102235.19;4802301;29;20027;-80
2021/11/06 15:30:24;;;;;;;5.85;1.35;;;;;;;17.17;56.24;102226.53;4771337;29;20076;-80
2021/11/06 15:33:25;;;;;;;2.88;1.50;;;;;;;17.16;56.80;102209.16;4806712;30;20024;-85
2021/11/06 15:39:14;;;;;;;3.05;1.50;;;;;;;17.15;56.65;102205.69;4790051;30;20041;-79
2021/11/06 15:41:40;;;;;;;3.65;1.63;;;;;;;17.15;56.77;102203.09;4802090;29;20483;-80
2021/11/06 15:44:37;;;;;;;3.97;1.58;;;;;;;17.13;56.73;102194.41;4803504;30;20046;-85
2021/11/06 15:57:37;;;;;;;5.03;1.50;;;;;;;17.14;56.81;102187.50;4811466;29;20076;-85
2021/11/06 16:04:00;;;;;;;3.80;1.50;;;;;;;17.13;57.02;102186.59;4776404;29;20039;-86
2021/11/06 16:16:21;;;;;;;3.35;1.40;;;;;;;17.12;56.88;102165.78;4849221;29;20033;-86
2021/11/06 16:19:30;;;;;;;3.83;1.60;;;;;;;17.12;57.03;102152.78;4847730;29;20047;-85
2021/11/06 16:22:34;;;;;;;2.35;1.05;;;;;;;17.12;56.82;102140.66;4832353;29;20023;-85
2021/11/06 16:25:43;;;;;;;3.17;1.23;;;;;;;17.11;56.92;102144.06;4844219;29;20083;-85
2021/11/06 16:28:31;;;;;;;3.25;1.42;;;;;;;17.12;56.87;102151.03;4847550;29;20042;-85
2021/11/06 16:34:58;;;;;;;2.83;1.35;;;;;;;17.10;56.86;102124.13;4834846;29;20084;-85
2021/11/06 16:47:32;;;;;;;2.75;1.40;;;;;;;17.11;56.99;102125.00;4981267;24;20046;-86
2021/11/06 17:27:12;;;;;;;3.78;1.30;;;;;;;17.09;56.88;102027.88;5384516;24;20066;-81
2021/11/06 17:29:39;;;;;;;2.33;0.90;;;;;;;17.09;56.85;102028.75;4840361;29;20098;-81
2021/11/06 17:32:08;;;;;;;2.60;1.30;;;;;;;17.07;56.89;102022.66;4825076;29;20034;-80
2021/11/06 17:34:35;;;;;;;2.70;1.13;;;;;;;17.09;56.75;102048.69;4838650;29;20156;-80
2021/11/06 17:37:01;;;;;;;2.60;1.38;;;;;;;17.09;56.70;102070.34;4840914;29;20030;-80
2021/11/06 17:39:28;;;;;;;3.80;1.60;;;;;;;17.08;56.87;102046.97;4840844;29;20385;-80
2021/11/06 17:41:53;;;;;;;2.50;1.23;;;;;;;17.07;56.84;102038.25;4828402;29;20037;-81
2021/11/06 17:44:20;;;;;;;3.40;1.30;;;;;;;17.05;56.77;102014.84;4845877;29;20034;-81
2021/11/06 17:46:47;;;;;;;4.15;1.40;;;;;;;17.07;56.95;102012.25;4829950;29;20121;-81
2021/11/06 17:49:16;;;;;;;4.28;1.55;;;;;;;17.08;56.89;102015.75;4845253;29;20027;-80
2021/11/06 17:51:55;;;;;;;3.88;1.35;;;;;;;17.08;56.68;101994.94;4844205;29;20048;-81
2021/11/06 17:54:21;;;;;;;2.80;1.38;;;;;;;17.06;57.03;102006.19;4823588;29;20039;-80
2021/11/06 17:56:47;;;;;;;3.17;1.40;;;;;;;17.05;56.99;101996.66;4810523;29;20045;-80
2021/11/06 17:59:12;;;;;;;2.60;1.30;;;;;;;17.08;56.81;102005.34;4810529;29;20145;-81
2021/11/06 18:01:41;;;;;;;3.80;1.20;;;;;;;17.06;56.90;101994.91;4825776;29;20029;-80
2021/11/06 18:04:07;;;;;;;4.40;1.23;;;;;;;17.05;56.76;102004.44;4824684;29;20034;-81
2021/11/06 18:06:32;;;;;;;2.58;1.20;;;;;;;17.07;56.54;101994.03;4809792;29;20134;-80
2021/11/06 18:08:58;;;;;;;3.35;1.42;;;;;;;17.07;56.50;101994.03;4837927;29;20035;-81
2021/11/06 18:41:36;;;;;;;4.88;1.60;;;;;;;17.06;56.73;101958.50;4852947;29;20061;-85
2021/11/06 19:00:21;;;;;;;3.95;1.52;;;;;;;17.04;56.44;101945.47;4833944;29;20038;-84
2021/11/06 19:03:42;;;;;;;3.75;1.40;;;;;;;17.05;56.64;101934.22;4830408;29;20042;-85
2021/11/06 19:10:17;;;;;;;3.65;1.60;;;;;;;17.05;56.61;101910.84;4832719;29;20050;-86
2021/11/06 19:13:05;;;;;;;3.45;1.63;;;;;;;17.03;56.60;101902.13;4832369;29;20027;-86
2021/11/06 19:25:50;;;;;;;4.55;1.48;;;;;;;17.04;56.31;101895.19;4832951;29;20090;-85
2021/11/06 19:28:58;;;;;;;3.35;1.50;;;;;;;17.03;56.44;101889.13;4748202;30;20031;-86
2021/11/06 21:14:14;;;;;;;4.32;1.70;;;;;;;16.97;56.89;101782.47;5190504;24;20074;-84
2021/11/06 21:20:18;;;;;;;3.53;1.63;;;;;;;16.99;57.07;101769.47;4808997;29;20126;-85
2021/11/06 21:23:47;;;;;;;3.90;1.58;;;;;;;16.99;56.96;101767.75;4791925;30;20031;-84
2021/11/06 21:30:20;;;;;;;3.97;1.45;;;;;;;16.97;57.08;101773.81;4792041;30;20039;-85
2021/11/06 21:47:23;;;;;;;4.13;1.67;;;;;;;16.96;57.13;101754.75;5219040;24;20074;-84
2021/11/06 21:57:16;;;;;;;3.22;1.35;;;;;;;16.97;57.08;101766.00;4829264;29;20067;-84
2021/11/06 22:00:01;;;;;;;3.13;1.35;;;;;;;16.97;57.00;101753.00;4827576;29;20094;-81
2021/11/06 22:02:27;;;;;;;3.22;1.77;;;;;;;16.96;56.87;101767.75;4823640;29;20035;-80
2021/11/06 22:04:53;;;;;;;3.63;1.50;;;;;;;16.95;56.94;101746.91;4823510;29;20030;-79
2021/11/06 22:07:18;;;;;;;4.28;1.55;;;;;;;16.95;57.14;101746.91;4792044;29;20046;-80
2021/11/06 22:09:44;;;;;;;2.55;1.35;;;;;;;16.95;57.15;101741.72;4820757;29;20060;-80
2021/11/06 22:12:12;;;;;;;4.18;1.42;;;;;;;16.95;56.94;101739.97;4821270;29;20031;-80
2021/11/06 22:14:39;;;;;;;3.45;1.35;;;;;;;16.96;57.04;101740.84;4817596;29;20034;-81
2021/11/06 22:17:05;;;;;;;4.93;1.85;;;;;;;16.94;57.12;101730.44;4803410;29;20035;-80
2021/11/06 22:19:31;;;;;;;2.85;1.30;;;;;;;16.95;57.22;101736.50;4801260;29;20038;-80
2021/11/06 22:21:57;;;;;;;3.95;1.40;;;;;;;16.95;57.04;101733.91;4803786;29;20046;-81
2021/11/06 22:24:24;;;;;;;3.97;1.52;;;;;;;16.95;57.03;101724.38;4801434;29;20035;-80